createdAt,value
2019-03-08T10:19:56.131Z,6.27
2019-03-08T10:21:14.342Z,6.43
2019-03-08T10:22:14.342Z,6.37
2019-03-08T10:23:19.855Z,6.34
2019-03-08T10:24:16.394Z,6.18
2019-03-08T10:25:15.397Z,6.15
2019-03-08T10:26:15.386Z,6.08
2019-03-08T10:27:15.392Z,6.12
2019-03-08T10:28:47.341Z,6.21
2019-03-08T10:29:15.361Z,6.41
2019-03-08T10:30:15.353Z,6.54
2019-03-08T10:31:15.359Z,6.56
2019-03-08T10:32:15.355Z,6.54
2019-03-08T10:33:15.343Z,6.46
2019-03-08T10:34:15.335Z,6.51
2019-03-08T10:35:23.555Z,6.58
2019-03-08T10:36:17.317Z,6.58
2019-03-08T10:37:15.313Z,6.70
2019-03-08T10:38:22.306Z,6.88
2019-03-08T10:39:17.287Z,6.73
2019-03-08T10:40:15.289Z,6.76
2019-03-08T10:41:15.279Z,6.84
2019-03-08T10:42:15.275Z,6.67
2019-03-08T10:43:15.262Z,6.74
2019-03-08T10:44:15.595Z,6.94
2019-03-08T10:45:16.251Z,6.85
2019-03-08T10:46:15.936Z,7.10
2019-03-08T10:47:16.241Z,6.99
2019-03-08T10:48:15.237Z,6.95
2019-03-08T10:49:15.254Z,6.94
2019-03-08T10:50:15.232Z,7.07
2019-03-08T10:51:15.223Z,6.94
2019-03-08T10:52:18.005Z,7.10
2019-03-08T10:53:16.211Z,7.06
2019-03-08T10:54:15.220Z,7.13
2019-03-08T10:55:15.207Z,7.31
2019-03-08T10:56:15.210Z,7.31
2019-03-08T10:57:15.209Z,7.34
2019-03-08T10:58:15.190Z,7.37
2019-03-08T10:59:15.208Z,7.49
2019-03-08T11:00:15.202Z,7.43
2019-03-08T11:01:15.160Z,7.05
2019-03-08T11:02:15.168Z,7.35
2019-03-08T11:03:15.153Z,7.46
2019-03-08T11:04:15.139Z,7.48
2019-03-08T11:05:15.129Z,7.60
2019-03-08T11:06:15.124Z,7.74
2019-03-08T11:07:15.122Z,7.83
2019-03-08T11:08:15.108Z,7.50
2019-03-08T11:09:15.097Z,7.72
2019-03-08T11:10:15.093Z,7.80
2019-03-08T11:11:15.082Z,7.61
2019-03-08T11:12:15.089Z,7.86
2019-03-08T11:13:15.073Z,8.05
2019-03-08T11:14:15.062Z,8.34
2019-03-08T11:15:23.926Z,8.47
2019-03-08T11:16:16.058Z,8.61
2019-03-08T11:17:15.069Z,8.83
2019-03-08T11:18:15.042Z,8.74
2019-03-08T11:19:15.041Z,8.38
2019-03-08T11:20:15.022Z,8.70
2019-03-08T11:21:15.123Z,8.34
2019-03-08T11:22:16.043Z,8.37
2019-03-08T11:23:15.001Z,8.50
2019-03-08T11:24:14.989Z,8.26
2019-03-08T11:25:14.991Z,8.20
2019-03-08T11:26:14.982Z,8.15
2019-03-08T11:27:14.992Z,7.89
2019-03-08T11:28:21.133Z,7.80
2019-03-08T11:29:16.982Z,7.68
2019-03-08T11:30:14.969Z,7.68
2019-03-08T11:31:14.963Z,7.80
2019-03-08T11:32:22.740Z,7.89
2019-03-08T11:33:16.960Z,7.87
2019-03-08T11:34:14.944Z,7.82
2019-03-08T11:35:15.947Z,8.05
2019-03-08T11:36:14.947Z,8.28
2019-03-08T11:37:14.942Z,8.58
2019-03-08T11:38:14.943Z,8.83
2019-03-08T11:39:14.922Z,8.80
2019-03-08T11:40:14.931Z,8.96
2019-03-08T11:41:14.904Z,8.95
2019-03-08T11:42:14.900Z,9.08
2019-03-08T11:43:14.904Z,9.33
2019-03-08T11:44:14.887Z,9.40
2019-03-08T11:45:14.878Z,9.18
2019-03-08T11:46:14.871Z,8.65
2019-03-08T11:47:14.865Z,8.38
2019-03-08T11:48:14.870Z,8.41
2019-03-08T11:49:14.880Z,8.37
2019-03-08T11:50:14.843Z,8.40
2019-03-08T11:51:14.837Z,8.55
2019-03-08T11:52:14.830Z,8.41
2019-03-08T11:53:14.844Z,8.47
2019-03-08T11:54:14.818Z,8.43
2019-03-08T11:55:14.809Z,8.63
2019-03-08T11:56:14.811Z,8.66
2019-03-08T11:57:14.807Z,8.70
2019-03-08T11:58:14.814Z,8.74
2019-03-08T11:59:14.818Z,8.79
2019-03-08T12:00:14.810Z,8.86
2019-03-08T12:01:14.802Z,8.74
2019-03-08T12:03:52.199Z,8.81
2019-03-08T12:04:52.199Z,8.80
2019-03-08T12:05:53.308Z,8.70
2019-03-08T12:06:53.319Z,8.61
2019-03-08T12:07:53.324Z,8.62
2019-03-08T12:09:25.284Z,8.40
2019-03-08T12:09:53.296Z,8.43
2019-03-08T12:10:53.298Z,8.44
2019-03-08T12:11:53.286Z,8.45
2019-03-08T12:12:53.274Z,8.56
2019-03-08T12:13:53.282Z,7.92
2019-03-08T12:14:53.260Z,7.85
2019-03-08T12:15:53.254Z,7.82
2019-03-08T12:16:54.252Z,7.92
2019-03-08T12:17:53.247Z,8.10
2019-03-08T12:18:53.249Z,8.23
2019-03-08T12:19:53.231Z,8.25
2019-03-08T12:20:53.226Z,8.20
2019-03-08T12:21:53.210Z,8.23
2019-03-08T12:22:53.210Z,8.71
2019-03-08T12:23:53.213Z,8.81
2019-03-08T12:24:53.196Z,8.91
2019-03-08T12:25:53.190Z,9.05
2019-03-08T12:26:53.185Z,8.87
2019-03-08T12:27:53.167Z,8.86
2019-03-08T12:28:53.179Z,8.94
2019-03-08T12:29:53.152Z,8.74
2019-03-08T12:30:53.262Z,8.70
2019-03-08T12:31:53.371Z,8.55
2019-03-08T12:32:53.248Z,8.45
2019-03-08T12:33:53.491Z,8.36
2019-03-08T12:34:54.399Z,8.10
2019-03-08T12:35:53.367Z,8.12
2019-03-08T12:36:53.368Z,8.00
2019-03-08T12:37:53.235Z,8.02
2019-03-08T12:38:53.202Z,8.05
2019-03-08T12:39:53.257Z,8.08
2019-03-08T12:40:53.212Z,8.12
2019-03-08T12:41:53.796Z,8.18
2019-03-08T12:42:53.226Z,8.18
2019-03-08T12:43:53.300Z,8.18
2019-03-08T12:44:53.289Z,8.30
2019-03-08T12:45:53.126Z,8.50
2019-03-08T12:46:53.117Z,8.48
2019-03-08T12:47:53.115Z,8.65
2019-03-08T12:48:53.166Z,8.62
2019-03-08T12:49:53.071Z,8.76
2019-03-08T12:50:53.061Z,8.81
2019-03-08T12:51:53.055Z,8.87
2019-03-08T12:52:53.043Z,8.87
2019-03-08T12:53:53.048Z,8.91
2019-03-08T12:54:53.034Z,8.92
2019-03-08T12:55:53.012Z,9.02
2019-03-08T12:56:53.012Z,9.14
2019-03-08T12:57:53.002Z,9.14
2019-03-08T12:58:53.042Z,9.26
2019-03-08T12:59:53.004Z,9.46
2019-03-08T13:00:52.994Z,9.72
2019-03-08T13:01:53.076Z,9.64
2019-03-08T13:02:52.980Z,9.79
2019-03-08T13:03:53.002Z,9.87
2019-03-08T13:04:52.964Z,9.75
2019-03-08T13:05:52.946Z,9.79
2019-03-08T13:06:52.941Z,10.05
2019-03-08T13:07:52.938Z,10.23
2019-03-08T13:08:52.952Z,10.27
2019-03-08T13:09:52.922Z,10.36
2019-03-08T13:10:52.943Z,10.07
2019-03-08T13:11:52.927Z,10.02
2019-03-08T13:12:52.922Z,10.15
2019-03-08T13:13:52.908Z,10.36
2019-03-08T13:14:52.935Z,10.40
2019-03-08T13:15:52.958Z,10.56
2019-03-08T13:16:52.909Z,10.56
2019-03-08T13:17:52.906Z,10.47
2019-03-08T13:18:52.895Z,10.44
2019-03-08T13:19:52.898Z,10.76
2019-03-08T13:20:52.890Z,10.89
2019-03-08T13:21:52.883Z,11.00
2019-03-08T13:22:52.874Z,10.78
2019-03-08T13:23:52.872Z,10.40
2019-03-08T13:24:52.879Z,10.38
2019-03-08T13:25:52.847Z,10.26
2019-03-08T13:26:53.844Z,10.38
2019-03-08T13:27:52.837Z,10.60
2019-03-08T13:28:52.829Z,10.48
2019-03-08T13:29:52.833Z,10.32
2019-03-08T13:30:52.820Z,10.48
2019-03-08T13:31:52.822Z,10.71
2019-03-08T13:32:52.802Z,11.04
2019-03-08T13:33:52.787Z,11.25
2019-03-08T13:34:52.784Z,11.15
2019-03-08T13:35:53.781Z,10.88
2019-03-08T13:36:52.767Z,10.32
2019-03-08T13:37:52.758Z,10.11
2019-03-08T13:38:52.757Z,10.38
2019-03-08T13:39:52.748Z,10.23
2019-03-08T13:40:52.742Z,9.90
2019-03-08T13:41:52.733Z,9.74
2019-03-08T13:42:52.729Z,10.01
2019-03-08T13:43:52.717Z,9.94
2019-03-08T13:44:52.733Z,9.87
2019-03-08T13:45:52.704Z,9.91
2019-03-08T13:46:52.694Z,9.93
2019-03-08T13:47:52.699Z,9.91
2019-03-08T13:48:52.690Z,9.86
2019-03-08T13:49:52.690Z,9.74
2019-03-08T13:50:52.676Z,9.87
2019-03-08T13:51:52.708Z,9.93
2019-03-08T13:52:52.694Z,10.01
2019-03-08T13:53:52.680Z,10.09
2019-03-08T13:54:52.688Z,10.36
2019-03-08T13:55:52.661Z,10.29
2019-03-08T13:56:52.657Z,10.02
2019-03-08T13:57:52.635Z,9.72
2019-03-08T13:58:52.641Z,9.46
2019-03-08T13:59:52.641Z,9.56
2019-03-08T14:00:52.618Z,9.33
2019-03-08T14:01:52.609Z,9.29
2019-03-08T14:02:52.611Z,9.13
2019-03-08T14:03:52.611Z,9.10
2019-03-08T14:04:52.593Z,8.94
2019-03-08T14:05:52.588Z,8.96
2019-03-08T14:06:52.567Z,8.92
2019-03-08T14:07:52.560Z,8.76
2019-03-08T14:08:52.550Z,8.86
2019-03-08T14:09:52.553Z,8.77
2019-03-08T14:10:52.553Z,8.70
2019-03-08T14:11:52.555Z,8.79
2019-03-08T14:12:52.538Z,9.04
2019-03-08T14:13:52.536Z,9.48
2019-03-08T14:14:52.528Z,9.78
2019-03-08T14:15:52.535Z,9.54
2019-03-08T14:16:52.518Z,9.38
2019-03-08T14:17:52.504Z,8.79
2019-03-08T14:18:52.492Z,8.91
2019-03-08T14:19:52.491Z,9.15
2019-03-08T14:20:53.497Z,9.53
2019-03-08T14:21:52.480Z,9.78
2019-03-08T14:22:52.464Z,10.01
2019-03-08T14:23:52.483Z,9.75
2019-03-08T14:24:52.501Z,9.99
2019-03-08T14:25:52.498Z,10.02
2019-03-08T14:26:52.484Z,9.90
2019-03-08T14:27:52.470Z,10.07
2019-03-08T14:28:52.494Z,10.11
2019-03-08T14:29:55.218Z,10.26
2019-03-08T14:30:57.772Z,10.12
2019-03-08T14:31:53.453Z,10.14
2019-03-08T14:32:52.433Z,9.99
2019-03-08T14:33:52.440Z,9.93
2019-03-08T14:34:53.716Z,10.08
2019-03-08T14:35:53.431Z,10.38
2019-03-08T14:36:52.416Z,10.51
2019-03-08T14:37:55.774Z,9.94
2019-03-08T14:38:52.394Z,9.84
2019-03-08T14:39:52.397Z,9.83
2019-03-08T14:40:53.273Z,9.90
2019-03-08T14:41:53.374Z,9.93
2019-03-08T14:42:52.370Z,9.94
2019-03-08T14:43:53.606Z,10.33
2019-03-08T14:44:53.354Z,10.71
2019-03-08T14:45:52.353Z,10.86
2019-03-08T14:46:52.947Z,10.92
2019-03-08T14:47:53.329Z,10.89
2019-03-08T14:48:52.337Z,10.60
2019-03-08T14:49:55.387Z,10.74
2019-03-08T14:50:53.334Z,10.68
2019-03-08T14:51:52.316Z,10.45
2019-03-08T14:52:55.416Z,10.05
2019-03-08T14:53:53.308Z,10.09
2019-03-08T14:54:52.301Z,10.04
2019-03-08T14:55:55.077Z,9.97
2019-03-08T14:56:53.282Z,9.97
2019-03-08T14:57:55.209Z,9.78
2019-03-08T14:58:53.267Z,9.74
2019-03-08T14:59:53.043Z,9.71
2019-03-08T15:00:53.264Z,9.84
2019-03-08T15:01:52.240Z,9.74
2019-03-08T15:02:52.253Z,9.71
2019-03-08T15:03:52.231Z,9.79
2019-03-08T15:04:52.222Z,9.61
2019-03-08T15:05:54.951Z,9.75
2019-03-08T15:06:53.223Z,9.72
2019-03-08T15:07:52.242Z,9.46
2019-03-08T15:08:54.992Z,9.23
2019-03-08T15:09:53.186Z,9.26
2019-03-08T15:10:52.180Z,9.51
2019-03-08T15:11:52.182Z,9.53
2019-03-08T15:12:53.196Z,9.46
2019-03-08T15:13:53.156Z,9.35
2019-03-08T15:14:52.149Z,9.15
2019-03-08T15:15:52.152Z,8.94
2019-03-08T15:16:52.220Z,9.14
2019-03-08T15:17:53.727Z,9.15
2019-03-08T15:18:53.128Z,9.29
2019-03-08T15:19:52.115Z,9.24
2019-03-08T15:20:54.873Z,9.31
2019-03-08T15:21:53.112Z,9.38
2019-03-08T15:22:52.092Z,9.40
2019-03-08T15:23:54.532Z,9.40
2019-03-08T15:24:54.838Z,9.50
2019-03-08T15:25:52.080Z,9.47
2019-03-08T15:26:52.077Z,9.51
2019-03-08T15:27:52.071Z,9.50
2019-03-08T15:28:52.049Z,9.53
2019-03-08T15:29:54.671Z,9.60
2019-03-08T15:30:53.036Z,9.56
2019-03-08T15:31:52.050Z,9.51
2019-03-08T15:32:52.034Z,9.66
2019-03-08T15:33:52.059Z,9.65
2019-03-08T15:34:52.029Z,9.69
2019-03-08T15:35:52.012Z,9.60
2019-03-08T15:36:52.030Z,9.47
2019-03-08T15:37:52.004Z,9.31
2019-03-08T15:38:58.555Z,9.29
2019-03-08T15:39:53.976Z,9.04
2019-03-08T15:40:51.967Z,8.91
2019-03-08T15:41:51.962Z,8.83
2019-03-08T15:42:51.964Z,8.79
2019-03-08T15:43:52.931Z,8.65
2019-03-08T15:44:51.939Z,8.58
2019-03-08T15:45:51.936Z,8.50
2019-03-08T15:46:51.957Z,8.58
2019-03-08T15:47:51.925Z,8.65
2019-03-08T15:48:53.275Z,8.81
2019-03-08T15:49:52.916Z,8.94
2019-03-08T15:50:51.907Z,8.99
2019-03-08T15:51:52.434Z,9.05
2019-03-08T15:52:51.888Z,9.14
2019-03-08T15:53:51.883Z,9.17
2019-03-08T15:54:52.425Z,9.04
2019-03-08T15:55:53.271Z,8.94
2019-03-08T15:56:52.903Z,9.11
2019-03-08T15:57:52.441Z,9.17
2019-03-08T15:58:51.869Z,9.29
2019-03-08T15:59:51.847Z,9.46
2019-03-08T16:00:51.874Z,9.17
2019-03-08T16:01:51.911Z,9.02
2019-03-08T16:02:54.408Z,8.74
2019-03-08T16:03:52.836Z,8.63
2019-03-08T16:04:52.109Z,8.70
2019-03-08T16:05:51.964Z,8.55
2019-03-08T16:06:51.855Z,8.41
2019-03-08T16:07:51.840Z,8.38
2019-03-08T16:08:52.499Z,8.36
2019-03-08T16:09:51.828Z,8.38
2019-03-08T16:10:51.829Z,8.25
2019-03-08T16:11:51.957Z,8.16
2019-03-08T16:12:51.900Z,8.16
2019-03-08T16:13:52.337Z,8.19
2019-03-08T16:14:52.341Z,8.15
2019-03-08T16:15:51.842Z,8.19
2019-03-08T16:16:51.787Z,8.15
2019-03-08T16:17:51.761Z,8.04
2019-03-08T16:18:51.847Z,8.11
2019-03-08T16:19:52.622Z,8.02
2019-03-08T16:20:51.811Z,8.15
2019-03-08T16:21:52.051Z,8.08
2019-03-08T16:22:52.841Z,8.16
2019-03-08T16:23:51.869Z,8.16
2019-03-08T16:24:52.777Z,8.07
2019-03-08T16:25:51.777Z,8.07
2019-03-08T16:26:51.776Z,8.10
2019-03-08T16:27:51.843Z,8.08
2019-03-08T16:28:51.737Z,8.08
2019-03-08T16:29:51.752Z,7.92
2019-03-08T16:30:51.732Z,8.00
2019-03-08T16:31:51.828Z,7.90
2019-03-08T16:32:51.809Z,7.90
2019-03-08T16:33:51.826Z,7.93
2019-03-08T16:34:51.781Z,7.89
2019-03-08T16:35:51.813Z,7.89
2019-03-08T16:36:51.795Z,7.89
2019-03-08T16:37:51.907Z,8.02
2019-03-08T16:38:51.754Z,7.90
2019-03-08T16:39:51.845Z,7.93
2019-03-08T16:40:51.753Z,7.90
2019-03-08T16:41:51.758Z,7.90
2019-03-08T16:42:52.342Z,7.93
2019-03-08T16:43:51.618Z,7.93
2019-03-08T16:44:51.816Z,7.87
2019-03-08T16:45:54.819Z,7.89
2019-03-08T16:46:52.620Z,7.80
2019-03-08T16:47:52.342Z,7.83
2019-03-08T16:48:51.629Z,7.85
2019-03-08T16:49:52.926Z,7.71
2019-03-08T16:50:51.544Z,7.77
2019-03-08T16:51:51.531Z,7.67
2019-03-08T16:52:51.524Z,7.79
2019-03-08T16:53:51.530Z,7.82
2019-03-08T16:54:51.522Z,7.74
2019-03-08T16:55:51.513Z,7.71
2019-03-08T16:56:51.505Z,7.74
2019-03-08T16:57:51.490Z,7.74
2019-03-08T16:58:51.486Z,7.68
2019-03-08T16:59:51.483Z,7.69
2019-03-08T17:00:51.461Z,7.64
2019-03-08T17:01:51.457Z,7.53
2019-03-08T17:02:51.448Z,7.46
2019-03-08T17:03:51.457Z,7.52
2019-03-08T17:04:51.449Z,7.55
2019-03-08T17:05:51.425Z,7.50
2019-03-08T17:06:51.429Z,7.46
2019-03-08T17:07:51.411Z,7.53
2019-03-08T17:08:51.418Z,7.48
2019-03-08T17:09:51.463Z,7.49
2019-03-08T17:10:51.449Z,7.52
2019-03-08T17:11:51.429Z,7.48
2019-03-08T17:12:51.402Z,7.43
2019-03-08T17:13:51.406Z,7.48
2019-03-08T17:14:51.386Z,7.45
2019-03-08T17:15:51.375Z,7.34
2019-03-08T17:16:51.370Z,7.32
2019-03-08T17:17:51.355Z,7.27
2019-03-08T17:18:51.359Z,7.31
2019-03-08T17:19:51.343Z,7.20
2019-03-08T17:20:51.335Z,7.20
2019-03-08T17:21:51.331Z,7.21
2019-03-08T17:22:51.339Z,7.15
2019-03-08T17:23:51.355Z,7.09
2019-03-08T17:24:51.327Z,7.07
2019-03-08T17:25:51.330Z,7.06
2019-03-08T17:26:51.309Z,6.94
2019-03-08T17:27:51.298Z,6.92
2019-03-08T17:28:51.305Z,6.95
2019-03-08T17:29:51.283Z,6.88
2019-03-08T17:30:51.287Z,6.74
2019-03-08T17:31:51.308Z,6.76
2019-03-08T17:32:51.269Z,6.81
2019-03-08T17:33:51.650Z,6.76
2019-03-08T17:34:52.242Z,6.69
2019-03-08T17:35:51.242Z,6.71
2019-03-08T17:36:51.236Z,6.84
2019-03-08T17:37:51.250Z,6.62
2019-03-08T17:38:51.235Z,6.74
2019-03-08T17:39:51.225Z,6.76
2019-03-08T17:40:51.211Z,6.76
2019-03-08T17:41:51.195Z,6.76
2019-03-08T17:42:51.194Z,6.70
2019-03-08T17:43:51.189Z,6.73
2019-03-08T17:44:51.173Z,6.58
2019-03-08T17:45:51.170Z,6.59
2019-03-08T17:46:51.163Z,6.59
2019-03-08T17:47:51.150Z,6.54
2019-03-08T17:48:51.157Z,6.59
2019-03-08T17:49:51.140Z,6.69
2019-03-08T17:50:51.125Z,6.52
2019-03-08T17:51:51.133Z,6.54
2019-03-08T17:52:51.130Z,6.61
2019-03-08T17:53:51.140Z,6.66
2019-03-08T17:54:51.109Z,6.59
2019-03-08T17:55:51.579Z,6.48
2019-03-08T17:56:52.094Z,6.59
2019-03-08T17:57:51.096Z,6.67
2019-03-08T17:58:51.082Z,6.59
2019-03-08T17:59:51.082Z,6.66
2019-03-08T18:00:51.067Z,6.67
2019-03-08T18:01:51.067Z,6.70
2019-03-08T18:02:51.049Z,6.76
2019-03-08T18:03:51.042Z,6.87
2019-03-08T18:04:51.060Z,6.77
2019-03-08T18:05:51.040Z,6.80
2019-03-08T18:06:51.038Z,6.79
2019-03-08T18:07:51.022Z,6.80
2019-03-08T18:08:51.017Z,6.73
2019-03-08T18:10:24.912Z,6.77
2019-03-08T18:10:51.008Z,6.76
2019-03-08T18:11:51.018Z,6.73
2019-03-08T18:12:51.009Z,6.62
2019-03-08T18:13:50.986Z,6.67
2019-03-08T18:14:52.003Z,6.69
2019-03-08T18:15:50.997Z,6.61
2019-03-08T18:16:50.991Z,6.48
2019-03-08T18:17:50.988Z,6.51
2019-03-08T18:18:50.990Z,6.43
2019-03-08T18:19:50.984Z,6.38
2019-03-08T18:20:50.996Z,6.33
2019-03-08T18:21:50.983Z,6.41
2019-03-08T18:22:51.028Z,6.31
2019-03-08T18:23:50.967Z,6.33
2019-03-08T18:24:50.972Z,6.18
2019-03-08T18:25:50.951Z,6.09
2019-03-08T18:26:50.946Z,5.99
2019-03-08T18:27:50.940Z,6.06
2019-03-08T18:28:50.931Z,6.04
2019-03-08T18:29:50.940Z,5.90
2019-03-08T18:30:50.921Z,5.93
2019-03-08T18:31:50.913Z,5.86
2019-03-08T18:32:50.897Z,5.83
2019-03-08T18:33:50.891Z,5.86
2019-03-08T18:34:50.902Z,5.85
2019-03-08T18:35:50.874Z,5.97
2019-03-08T18:36:50.876Z,5.91
2019-03-08T18:37:50.863Z,5.85
2019-03-08T18:38:50.856Z,5.85
2019-03-08T18:39:50.855Z,5.99
2019-03-08T18:40:50.857Z,5.86
2019-03-08T18:41:50.861Z,5.86
2019-03-08T18:42:50.831Z,5.94
2019-03-08T18:43:50.822Z,5.86
2019-03-08T18:44:50.826Z,5.93
2019-03-08T18:45:50.829Z,5.89
2019-03-08T18:46:50.812Z,5.89
2019-03-08T18:47:50.803Z,5.83
2019-03-08T18:48:50.800Z,5.94
2019-03-08T18:49:50.795Z,5.94
2019-03-08T18:50:50.815Z,5.96
2019-03-08T18:51:50.804Z,5.94
2019-03-08T18:52:50.791Z,6.11
2019-03-08T18:53:50.876Z,6.14
2019-03-08T18:54:50.806Z,6.27
2019-03-08T18:55:50.813Z,6.18
2019-03-08T18:56:50.804Z,6.34
2019-03-08T18:57:50.807Z,6.28
2019-03-08T18:58:50.799Z,6.36
2019-03-08T18:59:50.787Z,6.31
2019-03-08T19:00:50.801Z,6.37
2019-03-08T19:01:50.774Z,6.41
2019-03-08T19:02:50.772Z,6.46
2019-03-08T19:03:50.759Z,6.40
2019-03-08T19:04:50.750Z,6.46
2019-03-08T19:05:50.777Z,6.48
2019-03-08T19:06:50.757Z,6.36
2019-03-08T19:07:50.747Z,6.34
2019-03-08T19:08:50.742Z,6.36
2019-03-08T19:09:50.736Z,6.36
2019-03-08T19:10:50.742Z,6.38
2019-03-08T19:11:50.722Z,6.36
2019-03-08T19:12:50.719Z,6.33
2019-03-08T19:13:50.711Z,6.46
2019-03-08T19:14:50.698Z,6.44
2019-03-08T19:15:50.718Z,6.49
2019-03-08T19:16:50.682Z,6.59
2019-03-08T19:17:50.682Z,6.66
2019-03-08T19:18:50.668Z,6.61
2019-03-08T19:19:50.658Z,6.67
2019-03-08T19:20:50.661Z,6.69
2019-03-08T19:21:50.647Z,6.64
2019-03-08T19:22:50.677Z,6.55
2019-03-08T19:23:50.646Z,6.58
2019-03-08T19:24:50.653Z,6.56
2019-03-08T19:25:50.651Z,6.61
2019-03-08T19:26:50.689Z,6.55
2019-03-08T19:27:50.613Z,6.61
2019-03-08T19:28:50.608Z,6.59
2019-03-08T19:29:50.614Z,6.58
2019-03-08T19:30:50.604Z,6.59
2019-03-08T19:31:50.597Z,6.56
2019-03-08T19:32:50.619Z,6.74
2019-03-08T19:33:50.569Z,6.56
2019-03-08T19:34:50.578Z,6.67
2019-03-08T19:35:50.567Z,6.67
2019-03-08T19:36:50.554Z,6.69
2019-03-08T19:37:50.557Z,6.66
2019-03-08T19:38:50.539Z,6.73
2019-03-08T19:39:50.531Z,6.69
2019-03-08T19:40:50.526Z,6.67
2019-03-08T19:41:50.554Z,6.69
2019-03-08T19:42:50.515Z,6.64
2019-03-08T19:43:50.501Z,6.66
2019-03-08T19:44:50.513Z,6.69
2019-03-08T19:45:50.483Z,6.69
2019-03-08T19:46:50.506Z,6.67
2019-03-08T19:47:50.497Z,6.69
2019-03-08T19:48:50.505Z,6.73
2019-03-08T19:49:50.490Z,6.67
2019-03-08T19:50:50.480Z,6.74
2019-03-08T19:51:50.482Z,6.70
2019-03-08T19:52:50.457Z,6.66
2019-03-08T19:53:50.451Z,6.67
2019-03-08T19:54:50.446Z,6.67
2019-03-08T19:55:50.445Z,6.73
2019-03-08T19:56:50.441Z,6.62
2019-03-08T19:57:50.429Z,6.67
2019-03-08T19:58:50.432Z,6.70
2019-03-08T19:59:50.411Z,6.71
2019-03-08T20:00:50.413Z,6.70
2019-03-08T20:01:50.409Z,6.73
2019-03-08T20:02:50.394Z,6.64
2019-03-08T20:03:50.387Z,6.69
2019-03-08T20:04:50.380Z,6.69
2019-03-08T20:05:50.376Z,6.66
2019-03-08T20:06:50.382Z,6.70
2019-03-08T20:07:50.377Z,6.74
2019-03-08T20:08:50.363Z,6.73
2019-03-08T20:09:50.351Z,6.73
2019-03-08T20:10:50.359Z,6.76
2019-03-08T20:11:50.355Z,6.64
2019-03-08T20:12:50.338Z,6.51
2019-03-08T20:13:50.333Z,6.28
2019-03-08T20:14:50.322Z,6.14
2019-03-08T20:15:50.310Z,6.03
2019-03-08T20:16:50.363Z,5.82
2019-03-08T20:17:50.331Z,5.79
2019-03-08T20:18:50.326Z,5.68
2019-03-08T20:19:50.311Z,5.63
2019-03-08T20:20:50.334Z,5.64
2019-03-08T20:21:50.326Z,5.60
2019-03-08T20:22:50.296Z,5.61
2019-03-08T20:23:50.292Z,5.57
2019-03-08T20:24:50.274Z,5.58
2019-03-08T20:25:50.281Z,5.53
2019-03-08T20:26:50.285Z,5.60
2019-03-08T20:27:50.268Z,5.53
2019-03-08T20:28:50.257Z,5.60
2019-03-08T20:29:50.262Z,5.56
2019-03-08T20:30:50.243Z,5.51
2019-03-08T20:31:50.263Z,5.58
2019-03-08T20:32:50.231Z,5.43
2019-03-08T20:33:50.223Z,5.46
2019-03-08T20:34:50.213Z,5.45
2019-03-08T20:35:50.245Z,5.49
2019-03-08T20:36:50.236Z,5.54
2019-03-08T20:37:50.195Z,5.48
2019-03-08T20:38:50.192Z,5.63
2019-03-08T20:39:50.181Z,5.51
2019-03-08T20:40:50.195Z,5.65
2019-03-08T20:41:50.169Z,5.58
2019-03-08T20:42:50.173Z,5.67
2019-03-08T20:43:50.154Z,5.71
2019-03-08T20:44:50.156Z,5.72
2019-03-08T20:45:50.160Z,5.79
2019-03-08T20:46:50.137Z,5.82
2019-03-08T20:47:50.139Z,5.71
2019-03-08T20:48:50.137Z,5.81
2019-03-08T20:49:50.128Z,5.83
2019-03-08T20:50:50.117Z,5.89
2019-03-08T20:51:50.133Z,5.93
2019-03-08T20:52:50.112Z,5.86
2019-03-08T20:53:50.099Z,5.89
2019-03-08T20:54:50.086Z,5.90
2019-03-08T20:55:50.086Z,5.91
2019-03-08T20:56:50.088Z,5.89
2019-03-08T20:57:50.081Z,5.96
2019-03-08T20:58:50.061Z,5.86
2019-03-08T20:59:50.057Z,5.90
2019-03-08T21:00:50.052Z,5.85
2019-03-08T21:01:50.054Z,5.89
2019-03-08T21:02:50.031Z,6.01
2019-03-08T21:03:50.027Z,5.96
2019-03-08T21:04:50.028Z,5.89
2019-03-08T21:05:50.795Z,5.94
2019-03-08T21:06:51.046Z,5.97
2019-03-08T21:07:50.056Z,5.99
2019-03-08T21:08:50.041Z,5.99
2019-03-08T21:09:50.018Z,6.03
2019-03-08T21:10:50.018Z,5.96
2019-03-08T21:11:50.013Z,5.99
2019-03-08T21:12:49.996Z,6.11
2019-03-08T21:13:50.985Z,6.12
2019-03-08T21:14:49.991Z,6.17
2019-03-08T21:15:49.970Z,6.14
2019-03-08T21:16:49.959Z,6.11
2019-03-08T21:17:49.983Z,6.14
2019-03-08T21:18:49.955Z,5.96
2019-03-08T21:19:49.947Z,6.09
2019-03-08T21:20:49.945Z,6.09
2019-03-08T21:21:49.941Z,6.04
2019-03-08T21:22:49.939Z,6.03
2019-03-08T21:23:49.940Z,6.17
2019-03-08T21:24:49.918Z,6.14
2019-03-08T21:25:49.908Z,6.19
2019-03-08T21:26:49.907Z,6.19
2019-03-08T21:27:49.909Z,6.19
2019-03-08T21:28:49.892Z,6.17
2019-03-08T21:29:49.899Z,6.15
2019-03-08T21:30:49.873Z,6.15
2019-03-08T21:31:49.868Z,6.15
2019-03-08T21:32:49.894Z,6.18
2019-03-08T21:33:49.875Z,6.17
2019-03-08T21:34:49.872Z,6.14
2019-03-08T21:35:49.851Z,6.15
2019-03-08T21:36:49.847Z,6.18
2019-03-08T21:37:49.859Z,6.15
2019-03-08T21:38:49.834Z,6.14
2019-03-08T21:39:49.830Z,5.99
2019-03-08T21:40:49.818Z,5.97
2019-03-08T21:41:49.827Z,5.99
2019-03-08T21:42:49.859Z,5.91
2019-03-08T21:43:49.816Z,5.81
2019-03-08T21:44:49.811Z,5.85
2019-03-08T21:45:49.818Z,5.90
2019-03-08T21:46:49.789Z,5.82
2019-03-08T21:47:49.791Z,5.96
2019-03-08T21:48:49.773Z,5.90
2019-03-08T21:49:49.773Z,6.00
2019-03-08T21:50:49.778Z,5.99
2019-03-08T21:51:49.765Z,5.90
2019-03-08T21:52:49.779Z,5.91
2019-03-08T21:53:49.757Z,5.90
2019-03-08T21:54:49.752Z,5.99
2019-03-08T21:55:49.738Z,5.86
2019-03-08T21:56:49.731Z,5.86
2019-03-08T21:57:49.755Z,5.86
2019-03-08T21:58:49.730Z,5.93
2019-03-08T21:59:49.731Z,5.78
2019-03-08T22:00:49.723Z,5.79
2019-03-08T22:01:49.729Z,5.76
2019-03-08T22:02:49.738Z,5.79
2019-03-08T22:03:49.725Z,5.81
2019-03-08T22:04:49.708Z,5.76
2019-03-08T22:05:49.701Z,5.78
2019-03-08T22:06:49.698Z,5.68
2019-03-08T22:07:49.702Z,5.64
2019-03-08T22:08:49.687Z,5.57
2019-03-08T22:09:49.668Z,5.63
2019-03-08T22:10:49.659Z,5.74
2019-03-08T22:11:49.654Z,5.86
2019-03-08T22:12:49.652Z,5.90
2019-03-08T22:13:49.653Z,5.93
2019-03-08T22:14:49.643Z,5.89
2019-03-08T22:15:49.631Z,5.89
2019-03-08T22:16:49.612Z,5.94
2019-03-08T22:17:49.605Z,5.89
2019-03-08T22:18:49.622Z,5.91
2019-03-08T22:19:49.596Z,5.85
2019-03-08T22:20:49.592Z,5.93
2019-03-08T22:21:49.590Z,5.89
2019-03-08T22:22:49.589Z,5.86
2019-03-08T22:23:49.588Z,6.08
2019-03-08T22:24:49.568Z,6.03
2019-03-08T22:25:49.558Z,6.09
2019-03-08T22:26:49.554Z,6.09
2019-03-08T22:27:49.540Z,6.09
2019-03-08T22:28:49.547Z,6.08
2019-03-08T22:29:49.537Z,6.09
2019-03-08T22:30:49.524Z,6.12
2019-03-08T22:31:49.527Z,6.11
2019-03-08T22:32:49.518Z,6.09
2019-03-08T22:33:49.511Z,5.99
2019-03-08T22:34:49.498Z,5.94
2019-03-08T22:35:49.493Z,6.00
2019-03-08T22:36:49.488Z,6.04
2019-03-08T22:37:49.481Z,5.96
2019-03-08T22:38:49.479Z,6.01
2019-03-08T22:39:49.469Z,6.04
2019-03-08T22:40:49.464Z,6.06
2019-03-08T22:41:49.449Z,6.08
2019-03-08T22:42:49.450Z,6.12
2019-03-08T22:43:49.455Z,6.00
2019-03-08T22:44:49.430Z,6.03
2019-03-08T22:45:49.422Z,6.09
2019-03-08T22:46:49.416Z,6.15
2019-03-08T22:47:49.417Z,6.18
2019-03-08T22:48:49.415Z,6.09
2019-03-08T22:49:49.408Z,6.21
2019-03-08T22:50:49.395Z,6.19
2019-03-08T22:51:49.384Z,6.25
2019-03-08T22:52:49.376Z,6.08
2019-03-08T22:53:49.393Z,6.18
2019-03-08T22:54:49.370Z,6.11
2019-03-08T22:55:49.350Z,6.14
2019-03-08T22:56:49.346Z,6.14
2019-03-08T22:57:49.345Z,6.15
2019-03-08T22:58:49.338Z,6.14
2019-03-08T22:59:49.328Z,6.15
2019-03-08T23:00:49.322Z,6.17
2019-03-08T23:01:49.312Z,6.22
2019-03-08T23:02:49.308Z,6.28
2019-03-08T23:03:49.298Z,6.25
2019-03-08T23:04:49.300Z,6.17
2019-03-08T23:05:49.280Z,6.25
2019-03-08T23:06:49.272Z,6.21
2019-03-08T23:07:49.265Z,6.19
2019-03-08T23:08:49.258Z,6.21
2019-03-08T23:09:49.261Z,6.09
2019-03-08T23:10:49.237Z,6.15
2019-03-08T23:11:49.251Z,6.25
2019-03-08T23:12:49.252Z,6.17
2019-03-08T23:13:49.247Z,6.31
2019-03-08T23:14:49.249Z,6.17
2019-03-08T23:15:49.225Z,6.21
2019-03-08T23:16:49.215Z,6.31
2019-03-08T23:17:49.213Z,6.34
2019-03-08T23:18:49.198Z,6.30
2019-03-08T23:19:49.234Z,6.30
2019-03-08T23:20:49.201Z,6.27
2019-03-08T23:21:49.199Z,6.25
2019-03-08T23:22:49.191Z,6.14
2019-03-08T23:23:49.190Z,6.27
2019-03-08T23:24:49.173Z,6.18
2019-03-08T23:25:49.190Z,6.30
2019-03-08T23:26:49.190Z,6.31
2019-03-08T23:27:49.179Z,6.33
2019-03-08T23:28:49.176Z,6.15
2019-03-08T23:29:49.181Z,6.21
2019-03-08T23:30:49.175Z,6.22
2019-03-08T23:31:49.148Z,6.19
2019-03-08T23:32:49.140Z,6.22
2019-03-08T23:33:49.139Z,6.25
2019-03-08T23:34:49.143Z,6.11
2019-03-08T23:35:49.128Z,6.03
2019-03-08T23:36:49.130Z,6.08
2019-03-08T23:37:49.109Z,6.00